sensor_id;sensor_type;location;lat;lon;timestamp;P1;durP1;ratioP1;P2;durP2;ratioP2
40573;SDS011;26283;49.020;8.644;2022-08-05T00:02:08;4.07;;;2.22;;
40573;SDS011;26283;49.020;8.644;2022-08-05T00:04:34;5.70;;;2.60;;
40573;SDS011;26283;49.020;8.644;2022-08-05T00:06:59;5.57;;;2.40;;
40573;SDS011;26283;49.020;8.644;2022-08-05T00:09:25;6.97;;;2.70;;
40573;SDS011;26283;49.020;8.644;2022-08-05T00:11:50;5.03;;;2.20;;
40573;SDS011;26283;49.020;8.644;2022-08-05T00:14:16;4.80;;;2.22;;
40573;SDS011;26283;49.020;8.644;2022-08-05T00:16:42;2.97;;;2.08;;
40573;SDS011;26283;49.020;8.644;2022-08-05T00:19:08;2.65;;;2.30;;
40573;SDS011;26283;49.020;8.644;2022-08-05T00:21:33;6.05;;;2.58;;
40573;SDS011;26283;49.020;8.644;2022-08-05T00:23:59;2.47;;;2.28;;
40573;SDS011;26283;49.020;8.644;2022-08-05T00:26:24;4.82;;;2.67;;
40573;SDS011;26283;49.020;8.644;2022-08-05T00:28:50;4.50;;;2.30;;
40573;SDS011;26283;49.020;8.644;2022-08-05T00:31:15;3.17;;;2.50;;
40573;SDS011;26283;49.020;8.644;2022-08-05T00:33:41;6.90;;;2.80;;
40573;SDS011;26283;49.020;8.644;2022-08-05T00:36:06;3.08;;;2.65;;
40573;SDS011;26283;49.020;8.644;2022-08-05T00:38:31;2.85;;;2.20;;
40573;SDS011;26283;49.020;8.644;2022-08-05T00:40:57;3.67;;;2.50;;
40573;SDS011;26283;49.020;8.644;2022-08-05T00:43:23;2.37;;;2.05;;
40573;SDS011;26283;49.020;8.644;2022-08-05T00:45:49;2.70;;;2.30;;
40573;SDS011;26283;49.020;8.644;2022-08-05T00:48:19;3.10;;;1.80;;
40573;SDS011;26283;49.020;8.644;2022-08-05T00:50:47;5.10;;;2.12;;
40573;SDS011;26283;49.020;8.644;2022-08-05T00:53:14;3.83;;;2.62;;
40573;SDS011;26283;49.020;8.644;2022-08-05T00:55:41;3.17;;;2.50;;
40573;SDS011;26283;49.020;8.644;2022-08-05T00:58:07;2.25;;;2.03;;
40573;SDS011;26283;49.020;8.644;2022-08-05T01:00:32;3.20;;;2.20;;
40573;SDS011;26283;49.020;8.644;2022-08-05T01:02:58;3.12;;;2.42;;
40573;SDS011;26283;49.020;8.644;2022-08-05T01:05:23;2.87;;;2.67;;
40573;SDS011;26283;49.020;8.644;2022-08-05T01:07:49;2.45;;;2.20;;
40573;SDS011;26283;49.020;8.644;2022-08-05T01:10:15;3.03;;;2.72;;
40573;SDS011;26283;49.020;8.644;2022-08-05T01:12:46;4.80;;;2.45;;
40573;SDS011;26283;49.020;8.644;2022-08-05T01:15:16;2.50;;;2.30;;
40573;SDS011;26283;49.020;8.644;2022-08-05T01:17:50;3.92;;;2.95;;
40573;SDS011;26283;49.020;8.644;2022-08-05T01:29:03;3.42;;;2.35;;
40573;SDS011;26283;49.020;8.644;2022-08-05T01:31:34;4.10;;;2.85;;
40573;SDS011;26283;49.020;8.644;2022-08-05T01:34:37;3.37;;;2.50;;
40573;SDS011;26283;49.020;8.644;2022-08-05T01:37:29;3.25;;;2.42;;
40573;SDS011;26283;49.020;8.644;2022-08-05T01:39:59;5.30;;;2.92;;
40573;SDS011;26283;49.020;8.644;2022-08-05T01:42:27;8.15;;;3.12;;
40573;SDS011;26283;49.020;8.644;2022-08-05T01:44:55;8.13;;;2.80;;
40573;SDS011;26283;49.020;8.644;2022-08-05T01:47:24;7.20;;;3.20;;
40573;SDS011;26283;49.020;8.644;2022-08-05T01:49:52;8.55;;;2.95;;
40573;SDS011;26283;49.020;8.644;2022-08-05T01:52:19;6.82;;;2.78;;
40573;SDS011;26283;49.020;8.644;2022-08-05T01:54:48;7.37;;;3.17;;
40573;SDS011;26283;49.020;8.644;2022-08-05T01:57:19;6.28;;;3.20;;
40573;SDS011;26283;49.020;8.644;2022-08-05T01:59:50;5.05;;;3.15;;
40573;SDS011;26283;49.020;8.644;2022-08-05T02:02:18;7.45;;;3.15;;
40573;SDS011;26283;49.020;8.644;2022-08-05T02:04:45;5.25;;;2.87;;
40573;SDS011;26283;49.020;8.644;2022-08-05T02:07:12;5.82;;;2.83;;
40573;SDS011;26283;49.020;8.644;2022-08-05T02:09:38;8.90;;;2.92;;
40573;SDS011;26283;49.020;8.644;2022-08-05T02:12:07;6.90;;;2.92;;
40573;SDS011;26283;49.020;8.644;2022-08-05T02:14:46;4.57;;;3.33;;
40573;SDS011;26283;49.020;8.644;2022-08-05T02:17:18;3.78;;;2.67;;
40573;SDS011;26283;49.020;8.644;2022-08-05T02:19:54;7.80;;;3.08;;
40573;SDS011;26283;49.020;8.644;2022-08-05T02:22:28;8.18;;;3.10;;
40573;SDS011;26283;49.020;8.644;2022-08-05T02:25:04;4.53;;;2.92;;
40573;SDS011;26283;49.020;8.644;2022-08-05T02:27:33;5.18;;;3.25;;
40573;SDS011;26283;49.020;8.644;2022-08-05T02:30:02;5.53;;;3.15;;
40573;SDS011;26283;49.020;8.644;2022-08-05T02:32:30;7.45;;;2.92;;
40573;SDS011;26283;49.020;8.644;2022-08-05T02:34:59;5.25;;;3.03;;
40573;SDS011;26283;49.020;8.644;2022-08-05T02:37:26;4.55;;;2.90;;
40573;SDS011;26283;49.020;8.644;2022-08-05T02:39:54;4.65;;;3.30;;
40573;SDS011;26283;49.020;8.644;2022-08-05T02:42:20;6.12;;;3.20;;
40573;SDS011;26283;49.020;8.644;2022-08-05T02:44:47;6.60;;;3.25;;
40573;SDS011;26283;49.020;8.644;2022-08-05T02:47:14;4.57;;;2.95;;
40573;SDS011;26283;49.020;8.644;2022-08-05T02:49:41;7.15;;;3.22;;
40573;SDS011;26283;49.020;8.644;2022-08-05T02:52:09;5.93;;;3.00;;
40573;SDS011;26283;49.020;8.644;2022-08-05T02:54:37;5.07;;;2.62;;
40573;SDS011;26283;49.020;8.644;2022-08-05T02:57:10;3.10;;;2.80;;
40573;SDS011;26283;49.020;8.644;2022-08-05T02:59:39;4.70;;;3.37;;
40573;SDS011;26283;49.020;8.644;2022-08-05T03:02:06;3.03;;;2.75;;
40573;SDS011;26283;49.020;8.644;2022-08-05T03:04:33;6.87;;;2.97;;
40573;SDS011;26283;49.020;8.644;2022-08-05T03:07:01;6.20;;;3.00;;
40573;SDS011;26283;49.020;8.644;2022-08-05T03:09:27;6.60;;;2.80;;
40573;SDS011;26283;49.020;8.644;2022-08-05T03:11:53;5.80;;;3.20;;
40573;SDS011;26283;49.020;8.644;2022-08-05T03:14:18;4.07;;;3.10;;
40573;SDS011;26283;49.020;8.644;2022-08-05T03:16:44;3.65;;;2.90;;
40573;SDS011;26283;49.020;8.644;2022-08-05T03:19:09;5.05;;;3.00;;
40573;SDS011;26283;49.020;8.644;2022-08-05T03:21:34;5.75;;;2.87;;
40573;SDS011;26283;49.020;8.644;2022-08-05T03:24:00;4.10;;;2.80;;
40573;SDS011;26283;49.020;8.644;2022-08-05T03:26:27;3.25;;;2.90;;
40573;SDS011;26283;49.020;8.644;2022-08-05T03:28:52;6.53;;;2.87;;
40573;SDS011;26283;49.020;8.644;2022-08-05T03:31:18;4.22;;;2.90;;
40573;SDS011;26283;49.020;8.644;2022-08-05T03:33:44;5.07;;;2.60;;
40573;SDS011;26283;49.020;8.644;2022-08-05T03:36:09;3.80;;;2.72;;
40573;SDS011;26283;49.020;8.644;2022-08-05T03:38:39;5.22;;;2.83;;
40573;SDS011;26283;49.020;8.644;2022-08-05T03:41:08;3.37;;;2.72;;
40573;SDS011;26283;49.020;8.644;2022-08-05T03:43:34;4.12;;;2.75;;
40573;SDS011;26283;49.020;8.644;2022-08-05T03:46:00;7.68;;;3.53;;
40573;SDS011;26283;49.020;8.644;2022-08-05T03:48:26;7.28;;;2.95;;
40573;SDS011;26283;49.020;8.644;2022-08-05T03:53:47;5.25;;;2.70;;
40573;SDS011;26283;49.020;8.644;2022-08-05T03:58:54;4.35;;;2.67;;
40573;SDS011;26283;49.020;8.644;2022-08-05T04:01:23;6.03;;;3.00;;
40573;SDS011;26283;49.020;8.644;2022-08-05T04:03:51;3.33;;;3.03;;
40573;SDS011;26283;49.020;8.644;2022-08-05T04:06:18;4.05;;;2.85;;
40573;SDS011;26283;49.020;8.644;2022-08-05T04:08:44;6.17;;;3.20;;
40573;SDS011;26283;49.020;8.644;2022-08-05T04:11:10;5.55;;;3.58;;
40573;SDS011;26283;49.020;8.644;2022-08-05T04:13:39;8.57;;;3.60;;
40573;SDS011;26283;49.020;8.644;2022-08-05T04:16:06;6.18;;;3.40;;
40573;SDS011;26283;49.020;8.644;2022-08-05T04:18:33;5.30;;;3.33;;
40573;SDS011;26283;49.020;8.644;2022-08-05T04:20:59;4.30;;;3.55;;
40573;SDS011;26283;49.020;8.644;2022-08-05T04:23:25;5.45;;;3.47;;
40573;SDS011;26283;49.020;8.644;2022-08-05T04:25:53;6.60;;;3.42;;
40573;SDS011;26283;49.020;8.644;2022-08-05T04:28:19;9.77;;;3.30;;
40573;SDS011;26283;49.020;8.644;2022-08-05T04:30:45;6.00;;;3.80;;
40573;SDS011;26283;49.020;8.644;2022-08-05T04:33:12;6.28;;;3.70;;
40573;SDS011;26283;49.020;8.644;2022-08-05T04:35:38;6.45;;;4.03;;
40573;SDS011;26283;49.020;8.644;2022-08-05T04:38:04;7.90;;;3.62;;
40573;SDS011;26283;49.020;8.644;2022-08-05T04:40:32;8.57;;;3.42;;
40573;SDS011;26283;49.020;8.644;2022-08-05T04:42:59;7.90;;;3.87;;
40573;SDS011;26283;49.020;8.644;2022-08-05T04:45:24;8.10;;;3.65;;
40573;SDS011;26283;49.020;8.644;2022-08-05T04:47:50;6.57;;;4.20;;
40573;SDS011;26283;49.020;8.644;2022-08-05T04:50:15;6.28;;;3.65;;
40573;SDS011;26283;49.020;8.644;2022-08-05T04:52:41;7.47;;;4.18;;
40573;SDS011;26283;49.020;8.644;2022-08-05T04:55:07;7.00;;;4.00;;
40573;SDS011;26283;49.020;8.644;2022-08-05T04:57:33;6.03;;;3.83;;
40573;SDS011;26283;49.020;8.644;2022-08-05T04:59:58;5.00;;;3.90;;
40573;SDS011;26283;49.020;8.644;2022-08-05T05:02:23;9.20;;;4.22;;
40573;SDS011;26283;49.020;8.644;2022-08-05T05:04:49;7.93;;;4.30;;
40573;SDS011;26283;49.020;8.644;2022-08-05T05:07:15;7.20;;;4.40;;
40573;SDS011;26283;49.020;8.644;2022-08-05T05:09:41;5.75;;;4.57;;
40573;SDS011;26283;49.020;8.644;2022-08-05T05:12:06;6.03;;;4.60;;
40573;SDS011;26283;49.020;8.644;2022-08-05T05:14:32;6.82;;;4.40;;
40573;SDS011;26283;49.020;8.644;2022-08-05T05:17:00;4.35;;;3.95;;
40573;SDS011;26283;49.020;8.644;2022-08-05T05:19:26;4.75;;;3.95;;
40573;SDS011;26283;49.020;8.644;2022-08-05T05:21:51;7.72;;;4.15;;
40573;SDS011;26283;49.020;8.644;2022-08-05T05:24:17;4.35;;;3.72;;
40573;SDS011;26283;49.020;8.644;2022-08-05T05:26:45;4.78;;;4.00;;
40573;SDS011;26283;49.020;8.644;2022-08-05T05:29:11;6.62;;;4.00;;
40573;SDS011;26283;49.020;8.644;2022-08-05T05:31:36;3.75;;;3.45;;
40573;SDS011;26283;49.020;8.644;2022-08-05T05:34:02;4.57;;;3.47;;
40573;SDS011;26283;49.020;8.644;2022-08-05T05:36:27;4.47;;;3.12;;
40573;SDS011;26283;49.020;8.644;2022-08-05T05:38:53;4.30;;;3.00;;
40573;SDS011;26283;49.020;8.644;2022-08-05T05:41:18;6.00;;;3.05;;
40573;SDS011;26283;49.020;8.644;2022-08-05T05:43:44;4.43;;;3.08;;
40573;SDS011;26283;49.020;8.644;2022-08-05T05:46:09;4.82;;;3.20;;
40573;SDS011;26283;49.020;8.644;2022-08-05T05:48:34;5.20;;;3.10;;
40573;SDS011;26283;49.020;8.644;2022-08-05T05:51:00;5.03;;;3.00;;
40573;SDS011;26283;49.020;8.644;2022-08-05T05:53:25;5.35;;;2.83;;
40573;SDS011;26283;49.020;8.644;2022-08-05T05:55:51;4.10;;;2.67;;
40573;SDS011;26283;49.020;8.644;2022-08-05T05:58:16;4.43;;;2.75;;
40573;SDS011;26283;49.020;8.644;2022-08-05T06:00:41;3.33;;;2.40;;
40573;SDS011;26283;49.020;8.644;2022-08-05T06:03:07;2.92;;;2.72;;
40573;SDS011;26283;49.020;8.644;2022-08-05T06:05:33;2.85;;;2.60;;
40573;SDS011;26283;49.020;8.644;2022-08-05T06:07:59;6.25;;;3.10;;
40573;SDS011;26283;49.020;8.644;2022-08-05T06:10:24;5.72;;;3.58;;
40573;SDS011;26283;49.020;8.644;2022-08-05T06:12:49;4.03;;;2.80;;
40573;SDS011;26283;49.020;8.644;2022-08-05T06:15:15;6.47;;;2.87;;
40573;SDS011;26283;49.020;8.644;2022-08-05T06:17:40;4.10;;;2.95;;
40573;SDS011;26283;49.020;8.644;2022-08-05T06:20:06;5.00;;;3.08;;
40573;SDS011;26283;49.020;8.644;2022-08-05T06:22:32;3.67;;;2.85;;
40573;SDS011;26283;49.020;8.644;2022-08-05T06:24:59;6.80;;;2.95;;
40573;SDS011;26283;49.020;8.644;2022-08-05T06:27:25;4.30;;;3.40;;
40573;SDS011;26283;49.020;8.644;2022-08-05T06:29:50;3.80;;;3.08;;
40573;SDS011;26283;49.020;8.644;2022-08-05T06:32:16;5.00;;;3.35;;
40573;SDS011;26283;49.020;8.644;2022-08-05T06:34:42;4.00;;;3.12;;
40573;SDS011;26283;49.020;8.644;2022-08-05T06:37:07;4.80;;;3.22;;
40573;SDS011;26283;49.020;8.644;2022-08-05T06:39:33;7.18;;;3.17;;
40573;SDS011;26283;49.020;8.644;2022-08-05T06:41:59;7.18;;;2.80;;
40573;SDS011;26283;49.020;8.644;2022-08-05T06:44:26;3.28;;;2.55;;
40573;SDS011;26283;49.020;8.644;2022-08-05T06:46:53;5.97;;;3.20;;
40573;SDS011;26283;49.020;8.644;2022-08-05T06:49:19;2.83;;;2.58;;
40573;SDS011;26283;49.020;8.644;2022-08-05T06:51:44;4.65;;;2.80;;
40573;SDS011;26283;49.020;8.644;2022-08-05T06:54:09;3.67;;;2.90;;
40573;SDS011;26283;49.020;8.644;2022-08-05T06:56:35;4.00;;;2.95;;
40573;SDS011;26283;49.020;8.644;2022-08-05T06:59:02;3.90;;;2.47;;
40573;SDS011;26283;49.020;8.644;2022-08-05T07:01:28;2.72;;;2.53;;
40573;SDS011;26283;49.020;8.644;2022-08-05T07:03:53;5.30;;;2.95;;
40573;SDS011;26283;49.020;8.644;2022-08-05T07:06:18;3.92;;;2.87;;
40573;SDS011;26283;49.020;8.644;2022-08-05T07:08:44;2.90;;;2.70;;
40573;SDS011;26283;49.020;8.644;2022-08-05T07:11:10;3.55;;;2.67;;
40573;SDS011;26283;49.020;8.644;2022-08-05T07:13:35;3.42;;;3.10;;
40573;SDS011;26283;49.020;8.644;2022-08-05T07:16:19;4.37;;;3.00;;
40573;SDS011;26283;49.020;8.644;2022-08-05T07:19:03;4.00;;;3.03;;
40573;SDS011;26283;49.020;8.644;2022-08-05T07:21:29;6.78;;;3.08;;
40573;SDS011;26283;49.020;8.644;2022-08-05T07:23:55;3.17;;;2.85;;
40573;SDS011;26283;49.020;8.644;2022-08-05T07:26:21;6.50;;;2.97;;
40573;SDS011;26283;49.020;8.644;2022-08-05T07:28:47;4.03;;;3.30;;
40573;SDS011;26283;49.020;8.644;2022-08-05T07:31:12;6.15;;;3.28;;
40573;SDS011;26283;49.020;8.644;2022-08-05T07:33:38;3.72;;;2.75;;
40573;SDS011;26283;49.020;8.644;2022-08-05T07:36:05;3.90;;;2.90;;
40573;SDS011;26283;49.020;8.644;2022-08-05T07:38:30;3.28;;;2.97;;
40573;SDS011;26283;49.020;8.644;2022-08-05T07:40:56;3.45;;;2.70;;
40573;SDS011;26283;49.020;8.644;2022-08-05T07:43:22;2.83;;;2.60;;
40573;SDS011;26283;49.020;8.644;2022-08-05T07:45:47;2.85;;;2.40;;
40573;SDS011;26283;49.020;8.644;2022-08-05T07:48:13;2.95;;;2.12;;
40573;SDS011;26283;49.020;8.644;2022-08-05T07:50:38;3.35;;;2.17;;
40573;SDS011;26283;49.020;8.644;2022-08-05T07:53:03;3.80;;;2.20;;
40573;SDS011;26283;49.020;8.644;2022-08-05T07:55:29;2.25;;;2.05;;
40573;SDS011;26283;49.020;8.644;2022-08-05T07:57:55;2.42;;;2.22;;
40573;SDS011;26283;49.020;8.644;2022-08-05T08:00:24;1.98;;;1.87;;
40573;SDS011;26283;49.020;8.644;2022-08-05T08:02:49;2.10;;;2.00;;
40573;SDS011;26283;49.020;8.644;2022-08-05T08:05:15;1.95;;;1.85;;
40573;SDS011;26283;49.020;8.644;2022-08-05T08:07:40;2.12;;;1.98;;
40573;SDS011;26283;49.020;8.644;2022-08-05T08:10:06;1.95;;;1.80;;
40573;SDS011;26283;49.020;8.644;2022-08-05T08:12:32;2.25;;;1.90;;
40573;SDS011;26283;49.020;8.644;2022-08-05T08:14:57;2.08;;;1.98;;
40573;SDS011;26283;49.020;8.644;2022-08-05T08:17:22;2.17;;;2.00;;
40573;SDS011;26283;49.020;8.644;2022-08-05T08:19:48;1.98;;;1.87;;
40573;SDS011;26283;49.020;8.644;2022-08-05T08:22:13;4.80;;;2.15;;
40573;SDS011;26283;49.020;8.644;2022-08-05T08:24:39;2.87;;;2.08;;
40573;SDS011;26283;49.020;8.644;2022-08-05T08:27:04;3.83;;;2.20;;
40573;SDS011;26283;49.020;8.644;2022-08-05T08:29:31;2.37;;;2.28;;
40573;SDS011;26283;49.020;8.644;2022-08-05T08:31:56;2.15;;;1.90;;
40573;SDS011;26283;49.020;8.644;2022-08-05T08:34:22;2.42;;;2.22;;
40573;SDS011;26283;49.020;8.644;2022-08-05T08:36:49;2.58;;;2.20;;
40573;SDS011;26283;49.020;8.644;2022-08-05T08:39:15;2.00;;;1.90;;
40573;SDS011;26283;49.020;8.644;2022-08-05T08:41:46;2.03;;;1.90;;
40573;SDS011;26283;49.020;8.644;2022-08-05T08:44:13;2.35;;;2.15;;
40573;SDS011;26283;49.020;8.644;2022-08-05T08:46:39;2.08;;;1.87;;
40573;SDS011;26283;49.020;8.644;2022-08-05T08:49:05;2.25;;;1.90;;
40573;SDS011;26283;49.020;8.644;2022-08-05T08:51:32;4.70;;;2.00;;
40573;SDS011;26283;49.020;8.644;2022-08-05T08:53:59;2.15;;;1.95;;
40573;SDS011;26283;49.020;8.644;2022-08-05T08:56:25;2.00;;;1.60;;
40573;SDS011;26283;49.020;8.644;2022-08-05T08:58:51;2.50;;;2.30;;
40573;SDS011;26283;49.020;8.644;2022-08-05T09:01:17;2.17;;;1.83;;
40573;SDS011;26283;49.020;8.644;2022-08-05T09:03:50;2.05;;;1.95;;
40573;SDS011;26283;49.020;8.644;2022-08-05T09:06:17;3.20;;;2.00;;
40573;SDS011;26283;49.020;8.644;2022-08-05T09:08:42;1.80;;;1.70;;
40573;SDS011;26283;49.020;8.644;2022-08-05T09:11:08;2.30;;;2.00;;
40573;SDS011;26283;49.020;8.644;2022-08-05T09:13:34;2.08;;;1.85;;
40573;SDS011;26283;49.020;8.644;2022-08-05T09:16:01;3.15;;;1.90;;
40573;SDS011;26283;49.020;8.644;2022-08-05T09:18:27;2.00;;;1.90;;
40573;SDS011;26283;49.020;8.644;2022-08-05T09:20:53;1.95;;;1.75;;
40573;SDS011;26283;49.020;8.644;2022-08-05T09:23:19;2.10;;;2.00;;
40573;SDS011;26283;49.020;8.644;2022-08-05T09:25:46;1.90;;;1.80;;
40573;SDS011;26283;49.020;8.644;2022-08-05T09:28:19;2.53;;;1.92;;
40573;SDS011;26283;49.020;8.644;2022-08-05T09:30:55;2.33;;;1.98;;
40573;SDS011;26283;49.020;8.644;2022-08-05T09:33:29;2.00;;;1.80;;
40573;SDS011;26283;49.020;8.644;2022-08-05T09:35:55;2.00;;;1.90;;
40573;SDS011;26283;49.020;8.644;2022-08-05T09:38:29;2.30;;;2.00;;
40573;SDS011;26283;49.020;8.644;2022-08-05T09:41:00;2.40;;;2.20;;
40573;SDS011;26283;49.020;8.644;2022-08-05T09:45:55;2.67;;;2.08;;
40573;SDS011;26283;49.020;8.644;2022-08-05T09:48:25;2.50;;;2.20;;
40573;SDS011;26283;49.020;8.644;2022-08-05T09:50:59;2.05;;;1.95;;
40573;SDS011;26283;49.020;8.644;2022-08-05T09:53:26;2.17;;;2.08;;
40573;SDS011;26283;49.020;8.644;2022-08-05T09:55:53;3.80;;;1.83;;
40573;SDS011;26283;49.020;8.644;2022-08-05T09:58:20;2.75;;;2.08;;
40573;SDS011;26283;49.020;8.644;2022-08-05T10:00:57;4.68;;;2.12;;
40573;SDS011;26283;49.020;8.644;2022-08-05T10:03:27;2.15;;;1.92;;
40573;SDS011;26283;49.020;8.644;2022-08-05T10:06:06;2.28;;;1.70;;
40573;SDS011;26283;49.020;8.644;2022-08-05T10:08:34;2.40;;;2.20;;
40573;SDS011;26283;49.020;8.644;2022-08-05T10:11:02;1.98;;;1.60;;
40573;SDS011;26283;49.020;8.644;2022-08-05T10:13:37;2.50;;;1.92;;
40573;SDS011;26283;49.020;8.644;2022-08-05T10:16:03;1.70;;;1.60;;
40573;SDS011;26283;49.020;8.644;2022-08-05T10:18:30;2.78;;;1.70;;
40573;SDS011;26283;49.020;8.644;2022-08-05T10:21:01;2.50;;;1.90;;
40573;SDS011;26283;49.020;8.644;2022-08-05T10:23:30;1.90;;;1.80;;
40573;SDS011;26283;49.020;8.644;2022-08-05T10:25:58;1.95;;;1.80;;
40573;SDS011;26283;49.020;8.644;2022-08-05T10:28:25;1.73;;;1.60;;
40573;SDS011;26283;49.020;8.644;2022-08-05T10:30:52;1.85;;;1.75;;
40573;SDS011;26283;49.020;8.644;2022-08-05T10:33:19;4.78;;;1.80;;
40573;SDS011;26283;49.020;8.644;2022-08-05T10:35:47;1.70;;;1.60;;
40573;SDS011;26283;49.020;8.644;2022-08-05T10:38:14;1.80;;;1.70;;
40573;SDS011;26283;49.020;8.644;2022-08-05T10:46:08;1.98;;;1.67;;
40573;SDS011;26283;49.020;8.644;2022-08-05T10:48:37;2.17;;;1.83;;
40573;SDS011;26283;49.020;8.644;2022-08-05T10:51:17;2.47;;;2.22;;
40573;SDS011;26283;49.020;8.644;2022-08-05T10:56:16;1.98;;;1.80;;
40573;SDS011;26283;49.020;8.644;2022-08-05T11:04:21;1.98;;;1.87;;
40573;SDS011;26283;49.020;8.644;2022-08-05T11:10:04;1.85;;;1.70;;
40573;SDS011;26283;49.020;8.644;2022-08-05T11:17:45;1.80;;;1.70;;
40573;SDS011;26283;49.020;8.644;2022-08-05T11:28:44;5.28;;;1.80;;
40573;SDS011;26283;49.020;8.644;2022-08-05T11:39:03;2.15;;;2.03;;
40573;SDS011;26283;49.020;8.644;2022-08-05T11:41:29;2.67;;;1.77;;
40573;SDS011;26283;49.020;8.644;2022-08-05T11:44:00;2.30;;;2.05;;
40573;SDS011;26283;49.020;8.644;2022-08-05T11:46:32;1.80;;;1.70;;
40573;SDS011;26283;49.020;8.644;2022-08-05T11:49:06;2.47;;;2.03;;
40573;SDS011;26283;49.020;8.644;2022-08-05T11:51:35;2.10;;;1.98;;
40573;SDS011;26283;49.020;8.644;2022-08-05T11:54:01;1.98;;;1.67;;
40573;SDS011;26283;49.020;8.644;2022-08-05T11:56:42;1.92;;;1.83;;
40573;SDS011;26283;49.020;8.644;2022-08-05T11:59:14;2.10;;;1.85;;
40573;SDS011;26283;49.020;8.644;2022-08-05T12:04:25;2.33;;;2.12;;
40573;SDS011;26283;49.020;8.644;2022-08-05T12:06:52;1.80;;;1.70;;
40573;SDS011;26283;49.020;8.644;2022-08-05T12:09:28;2.17;;;2.00;;
40573;SDS011;26283;49.020;8.644;2022-08-05T12:11:54;1.83;;;1.67;;
40573;SDS011;26283;49.020;8.644;2022-08-05T12:14:19;1.92;;;1.75;;
40573;SDS011;26283;49.020;8.644;2022-08-05T12:16:45;2.45;;;2.35;;
40573;SDS011;26283;49.020;8.644;2022-08-05T12:19:11;2.00;;;1.90;;
40573;SDS011;26283;49.020;8.644;2022-08-05T12:21:41;2.28;;;2.00;;
40573;SDS011;26283;49.020;8.644;2022-08-05T12:24:11;2.03;;;1.90;;
40573;SDS011;26283;49.020;8.644;2022-08-05T12:26:52;2.20;;;2.00;;
40573;SDS011;26283;49.020;8.644;2022-08-05T12:31:50;2.37;;;2.28;;
40573;SDS011;26283;49.020;8.644;2022-08-05T12:34:18;2.03;;;1.85;;
40573;SDS011;26283;49.020;8.644;2022-08-05T12:36:46;2.12;;;1.90;;
40573;SDS011;26283;49.020;8.644;2022-08-05T12:39:13;3.03;;;1.80;;
40573;SDS011;26283;49.020;8.644;2022-08-05T12:41:39;2.15;;;1.90;;
40573;SDS011;26283;49.020;8.644;2022-08-05T12:44:09;2.75;;;1.80;;
40573;SDS011;26283;49.020;8.644;2022-08-05T12:46:37;2.22;;;1.95;;
40573;SDS011;26283;49.020;8.644;2022-08-05T12:49:09;2.40;;;2.20;;
40573;SDS011;26283;49.020;8.644;2022-08-05T12:54:26;2.28;;;1.92;;
40573;SDS011;26283;49.020;8.644;2022-08-05T12:57:01;2.12;;;1.95;;
40573;SDS011;26283;49.020;8.644;2022-08-05T13:02:03;2.42;;;2.15;;
40573;SDS011;26283;49.020;8.644;2022-08-05T13:04:31;1.90;;;1.80;;
40573;SDS011;26283;49.020;8.644;2022-08-05T13:06:59;2.10;;;2.00;;
40573;SDS011;26283;49.020;8.644;2022-08-05T13:09:27;3.90;;;2.10;;
40573;SDS011;26283;49.020;8.644;2022-08-05T13:12:03;2.25;;;1.95;;
40573;SDS011;26283;49.020;8.644;2022-08-05T13:17:22;2.20;;;2.10;;
40573;SDS011;26283;49.020;8.644;2022-08-05T13:22:36;2.28;;;2.17;;
40573;SDS011;26283;49.020;8.644;2022-08-05T13:25:04;2.10;;;1.90;;
40573;SDS011;26283;49.020;8.644;2022-08-05T13:27:33;2.00;;;1.90;;
40573;SDS011;26283;49.020;8.644;2022-08-05T13:30:02;2.28;;;2.17;;
40573;SDS011;26283;49.020;8.644;2022-08-05T13:32:31;2.17;;;2.08;;
40573;SDS011;26283;49.020;8.644;2022-08-05T13:34:56;2.30;;;2.20;;
40573;SDS011;26283;49.020;8.644;2022-08-05T13:37:22;2.15;;;2.05;;
40573;SDS011;26283;49.020;8.644;2022-08-05T13:39:48;2.30;;;2.20;;
40573;SDS011;26283;49.020;8.644;2022-08-05T13:42:14;2.55;;;2.35;;
40573;SDS011;26283;49.020;8.644;2022-08-05T13:44:41;3.25;;;2.78;;
40573;SDS011;26283;49.020;8.644;2022-08-05T13:47:07;2.75;;;2.40;;
40573;SDS011;26283;49.020;8.644;2022-08-05T13:49:32;2.90;;;2.70;;
40573;SDS011;26283;49.020;8.644;2022-08-05T13:52:08;3.22;;;2.92;;
40573;SDS011;26283;49.020;8.644;2022-08-05T13:54:34;3.90;;;2.70;;
40573;SDS011;26283;49.020;8.644;2022-08-05T13:56:59;4.05;;;2.78;;
40573;SDS011;26283;49.020;8.644;2022-08-05T13:59:25;3.20;;;3.00;;
40573;SDS011;26283;49.020;8.644;2022-08-05T14:01:54;3.03;;;2.80;;
40573;SDS011;26283;49.020;8.644;2022-08-05T14:04:20;2.80;;;2.60;;
40573;SDS011;26283;49.020;8.644;2022-08-05T14:07:04;3.15;;;2.90;;
40573;SDS011;26283;49.020;8.644;2022-08-05T14:09:29;3.35;;;2.97;;
40573;SDS011;26283;49.020;8.644;2022-08-05T14:11:55;4.10;;;2.70;;
40573;SDS011;26283;49.020;8.644;2022-08-05T14:14:20;3.20;;;3.00;;
40573;SDS011;26283;49.020;8.644;2022-08-05T14:16:45;4.18;;;3.08;;
40573;SDS011;26283;49.020;8.644;2022-08-05T14:19:15;3.10;;;2.80;;
40573;SDS011;26283;49.020;8.644;2022-08-05T14:21:40;3.15;;;2.70;;
40573;SDS011;26283;49.020;8.644;2022-08-05T14:24:05;3.17;;;2.97;;
40573;SDS011;26283;49.020;8.644;2022-08-05T14:26:34;3.20;;;3.00;;
40573;SDS011;26283;49.020;8.644;2022-08-05T14:29:00;3.05;;;2.85;;
40573;SDS011;26283;49.020;8.644;2022-08-05T14:31:25;3.15;;;2.95;;
40573;SDS011;26283;49.020;8.644;2022-08-05T14:33:51;2.70;;;2.58;;
40573;SDS011;26283;49.020;8.644;2022-08-05T14:36:16;3.08;;;2.87;;
40573;SDS011;26283;49.020;8.644;2022-08-05T14:38:42;3.28;;;2.97;;
40573;SDS011;26283;49.020;8.644;2022-08-05T14:41:07;3.30;;;3.03;;
40573;SDS011;26283;49.020;8.644;2022-08-05T14:43:36;4.57;;;3.28;;
40573;SDS011;26283;49.020;8.644;2022-08-05T14:46:02;4.00;;;3.00;;
40573;SDS011;26283;49.020;8.644;2022-08-05T14:48:27;3.10;;;2.80;;
40573;SDS011;26283;49.020;8.644;2022-08-05T14:50:52;5.45;;;3.47;;
40573;SDS011;26283;49.020;8.644;2022-08-05T14:53:18;3.12;;;2.92;;
40573;SDS011;26283;49.020;8.644;2022-08-05T14:55:43;3.70;;;3.40;;
40573;SDS011;26283;49.020;8.644;2022-08-05T14:58:09;3.30;;;3.10;;
40573;SDS011;26283;49.020;8.644;2022-08-05T15:00:35;3.37;;;3.17;;
40573;SDS011;26283;49.020;8.644;2022-08-05T15:03:02;3.30;;;2.95;;
40573;SDS011;26283;49.020;8.644;2022-08-05T15:05:30;3.28;;;3.05;;
40573;SDS011;26283;49.020;8.644;2022-08-05T15:07:56;3.00;;;2.80;;
40573;SDS011;26283;49.020;8.644;2022-08-05T15:10:21;3.15;;;2.92;;
40573;SDS011;26283;49.020;8.644;2022-08-05T15:12:47;2.95;;;2.75;;
40573;SDS011;26283;49.020;8.644;2022-08-05T15:15:12;3.00;;;2.70;;
40573;SDS011;26283;49.020;8.644;2022-08-05T15:17:37;2.70;;;2.50;;
40573;SDS011;26283;49.020;8.644;2022-08-05T15:20:03;4.30;;;3.15;;
40573;SDS011;26283;49.020;8.644;2022-08-05T15:22:30;4.10;;;2.60;;
40573;SDS011;26283;49.020;8.644;2022-08-05T15:24:55;2.53;;;2.42;;
40573;SDS011;26283;49.020;8.644;2022-08-05T15:27:22;2.97;;;2.70;;
40573;SDS011;26283;49.020;8.644;2022-08-05T15:29:48;2.50;;;2.40;;
40573;SDS011;26283;49.020;8.644;2022-08-05T15:32:14;2.65;;;2.40;;
40573;SDS011;26283;49.020;8.644;2022-08-05T15:34:39;2.80;;;2.60;;
40573;SDS011;26283;49.020;8.644;2022-08-05T15:37:05;2.72;;;2.53;;
40573;SDS011;26283;49.020;8.644;2022-08-05T15:39:30;2.80;;;2.60;;
40573;SDS011;26283;49.020;8.644;2022-08-05T15:41:55;2.80;;;2.60;;
40573;SDS011;26283;49.020;8.644;2022-08-05T15:44:21;2.35;;;2.25;;
40573;SDS011;26283;49.020;8.644;2022-08-05T15:46:46;2.35;;;2.25;;
40573;SDS011;26283;49.020;8.644;2022-08-05T15:49:12;2.60;;;2.42;;
40573;SDS011;26283;49.020;8.644;2022-08-05T15:51:37;2.78;;;2.58;;
40573;SDS011;26283;49.020;8.644;2022-08-05T15:54:02;2.30;;;2.10;;
40573;SDS011;26283;49.020;8.644;2022-08-05T15:56:28;2.78;;;2.58;;
40573;SDS011;26283;49.020;8.644;2022-08-05T15:58:53;2.62;;;2.53;;
40573;SDS011;26283;49.020;8.644;2022-08-05T16:01:19;2.45;;;2.25;;